sensor_id;sensor_type;location;lat;lon;timestamp;pressure;altitude;pressure_sealevel;temperature;humidity
53514;BME280;39768;54.148;12.174;2023-02-15T00:01:11;103053.69;;;4.48;100.00
53514;BME280;39768;54.148;12.174;2023-02-15T00:05:13;103058.13;;;4.49;100.00
53514;BME280;39768;54.148;12.174;2023-02-15T00:09:14;103058.75;;;4.81;100.00
53514;BME280;39768;54.148;12.174;2023-02-15T00:13:15;103056.00;;;4.60;100.00
53514;BME280;39768;54.148;12.174;2023-02-15T00:17:17;103051.53;;;4.40;100.00
53514;BME280;39768;54.148;12.174;2023-02-15T00:21:18;103056.56;;;4.53;100.00
53514;BME280;39768;54.148;12.174;2023-02-15T00:25:20;103051.72;;;4.62;100.00
53514;BME280;39768;54.148;12.174;2023-02-15T00:29:21;103043.00;;;4.45;100.00
53514;BME280;39768;54.148;12.174;2023-02-15T00:33:24;103041.72;;;4.73;100.00
53514;BME280;39768;54.148;12.174;2023-02-15T00:37:26;103041.28;;;4.64;100.00
53514;BME280;39768;54.148;12.174;2023-02-15T00:41:27;103042.25;;;4.66;100.00
53514;BME280;39768;54.148;12.174;2023-02-15T00:45:29;103039.06;;;4.36;100.00
53514;BME280;39768;54.148;12.174;2023-02-15T00:50:02;103028.84;;;4.24;100.00
53514;BME280;39768;54.148;12.174;2023-02-15T00:55:38;103019.75;;;4.35;100.00
53514;BME280;39768;54.148;12.174;2023-02-15T01:00:27;103024.41;;;4.05;100.00
53514;BME280;39768;54.148;12.174;2023-02-15T01:06:13;103028.81;;;3.88;100.00
53514;BME280;39768;54.148;12.174;2023-02-15T01:22:46;103002.13;;;4.15;100.00
53514;BME280;39768;54.148;12.174;2023-02-15T01:27:45;102997.28;;;3.88;100.00
53514;BME280;39768;54.148;12.174;2023-02-15T01:33:10;102992.63;;;4.01;100.00
53514;BME280;39768;54.148;12.174;2023-02-15T01:43:59;102981.69;;;3.92;100.00
53514;BME280;39768;54.148;12.174;2023-02-15T02:01:21;102971.72;;;3.84;100.00
53514;BME280;39768;54.148;12.174;2023-02-15T02:30:04;102946.38;;;3.33;100.00
53514;BME280;39768;54.148;12.174;2023-02-15T02:34:16;102938.72;;;3.38;100.00
53514;BME280;39768;54.148;12.174;2023-02-15T02:44:35;102930.91;;;3.22;100.00
53514;BME280;39768;54.148;12.174;2023-02-15T02:50:40;102914.91;;;3.17;100.00
53514;BME280;39768;54.148;12.174;2023-02-15T02:56:16;102907.09;;;3.52;100.00
53514;BME280;39768;54.148;12.174;2023-02-15T03:14:34;102898.53;;;3.39;100.00
53514;BME280;39768;54.148;12.174;2023-02-15T03:20:40;102892.97;;;3.33;100.00
53514;BME280;39768;54.148;12.174;2023-02-15T03:26:04;102879.19;;;3.54;100.00
53514;BME280;39768;54.148;12.174;2023-02-15T03:31:48;102863.28;;;3.51;100.00
53514;BME280;39768;54.148;12.174;2023-02-15T03:37:50;102862.97;;;3.63;100.00
53514;BME280;39768;54.148;12.174;2023-02-15T03:43:03;102849.81;;;3.81;100.00
53514;BME280;39768;54.148;12.174;2023-02-15T03:47:56;102861.94;;;3.97;100.00
53514;BME280;39768;54.148;12.174;2023-02-15T03:52:02;102862.56;;;3.73;100.00
53514;BME280;39768;54.148;12.174;2023-02-15T03:56:06;102855.88;;;3.80;100.00
53514;BME280;39768;54.148;12.174;2023-02-15T04:00:13;102849.50;;;3.57;100.00
53514;BME280;39768;54.148;12.174;2023-02-15T04:04:36;102849.50;;;3.57;100.00
53514;BME280;39768;54.148;12.174;2023-02-15T04:08:56;102849.25;;;3.88;100.00
53514;BME280;39768;54.148;12.174;2023-02-15T04:13:23;102849.31;;;3.52;100.00
53514;BME280;39768;54.148;12.174;2023-02-15T04:17:28;102843.69;;;3.45;100.00
53514;BME280;39768;54.148;12.174;2023-02-15T04:21:41;102844.53;;;3.26;100.00
53514;BME280;39768;54.148;12.174;2023-02-15T04:26:32;102836.00;;;3.85;100.00
53514;BME280;39768;54.148;12.174;2023-02-15T04:30:34;102821.88;;;3.83;100.00
53514;BME280;39768;54.148;12.174;2023-02-15T04:34:43;102813.38;;;3.51;100.00
53514;BME280;39768;54.148;12.174;2023-02-15T04:38:57;102818.31;;;3.45;100.00
53514;BME280;39768;54.148;12.174;2023-02-15T04:43:10;102801.84;;;3.85;100.00
53514;BME280;39768;54.148;12.174;2023-02-15T04:47:14;102806.59;;;3.57;100.00
53514;BME280;39768;54.148;12.174;2023-02-15T04:51:21;102790.72;;;3.36;100.00
53514;BME280;39768;54.148;12.174;2023-02-15T04:55:36;102794.75;;;3.47;100.00
53514;BME280;39768;54.148;12.174;2023-02-15T04:59:46;102790.13;;;3.24;100.00
53514;BME280;39768;54.148;12.174;2023-02-15T05:03:50;102780.38;;;3.03;100.00
53514;BME280;39768;54.148;12.174;2023-02-15T05:08:12;102779.72;;;3.07;100.00
53514;BME280;39768;54.148;12.174;2023-02-15T05:12:13;102778.81;;;3.25;100.00
53514;BME280;39768;54.148;12.174;2023-02-15T05:16:18;102779.78;;;3.09;100.00
53514;BME280;39768;54.148;12.174;2023-02-15T05:20:19;102773.94;;;3.32;100.00
53514;BME280;39768;54.148;12.174;2023-02-15T05:24:21;102776.94;;;3.22;100.00
53514;BME280;39768;54.148;12.174;2023-02-15T05:28:41;102767.78;;;3.14;100.00
53514;BME280;39768;54.148;12.174;2023-02-15T05:32:42;102757.13;;;3.29;100.00
53514;BME280;39768;54.148;12.174;2023-02-15T05:36:44;102763.31;;;3.66;100.00
53514;BME280;39768;54.148;12.174;2023-02-15T05:40:45;102757.94;;;3.82;100.00
53514;BME280;39768;54.148;12.174;2023-02-15T05:44:49;102752.22;;;3.54;100.00
53514;BME280;39768;54.148;12.174;2023-02-15T05:48:50;102756.31;;;3.86;100.00
53514;BME280;39768;54.148;12.174;2023-02-15T05:52:52;102763.16;;;3.63;100.00
53514;BME280;39768;54.148;12.174;2023-02-15T05:56:54;102753.91;;;3.16;100.00
53514;BME280;39768;54.148;12.174;2023-02-15T06:00:55;102752.13;;;3.70;100.00
53514;BME280;39768;54.148;12.174;2023-02-15T06:04:57;102749.28;;;3.66;100.00
53514;BME280;39768;54.148;12.174;2023-02-15T06:08:58;102748.38;;;4.04;100.00
53514;BME280;39768;54.148;12.174;2023-02-15T06:13:00;102746.56;;;4.03;100.00
53514;BME280;39768;54.148;12.174;2023-02-15T06:17:01;102745.47;;;3.78;100.00
53514;BME280;39768;54.148;12.174;2023-02-15T06:21:03;102741.66;;;3.52;100.00
53514;BME280;39768;54.148;12.174;2023-02-15T06:25:05;102744.28;;;3.72;100.00
53514;BME280;39768;54.148;12.174;2023-02-15T06:29:06;102753.22;;;3.56;100.00
53514;BME280;39768;54.148;12.174;2023-02-15T06:33:08;102754.56;;;3.30;100.00
53514;BME280;39768;54.148;12.174;2023-02-15T06:37:09;102750.84;;;2.90;100.00
53514;BME280;39768;54.148;12.174;2023-02-15T06:41:11;102741.91;;;3.39;100.00
53514;BME280;39768;54.148;12.174;2023-02-15T06:45:12;102748.97;;;3.60;100.00
53514;BME280;39768;54.148;12.174;2023-02-15T06:49:14;102741.25;;;3.63;100.00
53514;BME280;39768;54.148;12.174;2023-02-15T06:53:16;102738.38;;;3.39;100.00
53514;BME280;39768;54.148;12.174;2023-02-15T06:57:17;102738.06;;;3.33;100.00
53514;BME280;39768;54.148;12.174;2023-02-15T07:01:19;102738.66;;;3.45;100.00
53514;BME280;39768;54.148;12.174;2023-02-15T07:05:21;102718.91;;;3.72;100.00
53514;BME280;39768;54.148;12.174;2023-02-15T07:09:23;102725.25;;;3.39;100.00
53514;BME280;39768;54.148;12.174;2023-02-15T07:13:24;102730.88;;;4.04;100.00
53514;BME280;39768;54.148;12.174;2023-02-15T07:17:25;102727.41;;;3.86;100.00
53514;BME280;39768;54.148;12.174;2023-02-15T07:21:37;102733.41;;;4.41;100.00
53514;BME280;39768;54.148;12.174;2023-02-15T07:25:38;102735.78;;;4.56;100.00
53514;BME280;39768;54.148;12.174;2023-02-15T07:29:40;102742.34;;;4.25;100.00
53514;BME280;39768;54.148;12.174;2023-02-15T07:33:41;102743.28;;;4.47;100.00
53514;BME280;39768;54.148;12.174;2023-02-15T07:37:43;102737.69;;;4.39;100.00
53514;BME280;39768;54.148;12.174;2023-02-15T07:41:44;102735.75;;;4.35;100.00
53514;BME280;39768;54.148;12.174;2023-02-15T07:45:46;102728.59;;;4.52;100.00
53514;BME280;39768;54.148;12.174;2023-02-15T07:49:47;102727.63;;;4.50;100.00
53514;BME280;39768;54.148;12.174;2023-02-15T07:53:51;102720.13;;;4.38;100.00
53514;BME280;39768;54.148;12.174;2023-02-15T07:57:53;102716.72;;;4.61;100.00
53514;BME280;39768;54.148;12.174;2023-02-15T08:01:55;102719.88;;;4.53;100.00
53514;BME280;39768;54.148;12.174;2023-02-15T08:05:59;102697.72;;;4.27;100.00
53514;BME280;39768;54.148;12.174;2023-02-15T08:10:01;102700.56;;;4.73;100.00
53514;BME280;39768;54.148;12.174;2023-02-15T08:14:09;102698.03;;;4.97;100.00
53514;BME280;39768;54.148;12.174;2023-02-15T08:18:10;102695.75;;;4.63;100.00
53514;BME280;39768;54.148;12.174;2023-02-15T08:22:13;102691.47;;;5.08;100.00
53514;BME280;39768;54.148;12.174;2023-02-15T08:26:15;102688.81;;;4.86;100.00
53514;BME280;39768;54.148;12.174;2023-02-15T08:30:18;102690.53;;;5.28;100.00
53514;BME280;39768;54.148;12.174;2023-02-15T08:34:20;102689.75;;;5.31;100.00
53514;BME280;39768;54.148;12.174;2023-02-15T08:38:22;102691.88;;;4.96;100.00
53514;BME280;39768;54.148;12.174;2023-02-15T08:42:23;102683.88;;;4.73;100.00
53514;BME280;39768;54.148;12.174;2023-02-15T08:46:31;102683.47;;;4.22;100.00
53514;BME280;39768;54.148;12.174;2023-02-15T08:50:33;102675.97;;;4.31;100.00
53514;BME280;39768;54.148;12.174;2023-02-15T08:54:34;102666.78;;;4.41;100.00
53514;BME280;39768;54.148;12.174;2023-02-15T08:58:36;102661.63;;;4.65;100.00
53514;BME280;39768;54.148;12.174;2023-02-15T09:02:38;102672.06;;;4.84;100.00
53514;BME280;39768;54.148;12.174;2023-02-15T09:06:40;102672.06;;;5.06;100.00
53514;BME280;39768;54.148;12.174;2023-02-15T09:10:42;102669.44;;;4.84;100.00
53514;BME280;39768;54.148;12.174;2023-02-15T09:14:44;102673.28;;;5.14;100.00
53514;BME280;39768;54.148;12.174;2023-02-15T09:18:46;102677.56;;;4.90;100.00
53514;BME280;39768;54.148;12.174;2023-02-15T09:22:48;102665.88;;;5.50;100.00
53514;BME280;39768;54.148;12.174;2023-02-15T09:26:49;102671.22;;;5.07;100.00
53514;BME280;39768;54.148;12.174;2023-02-15T09:30:51;102659.25;;;5.38;100.00
53514;BME280;39768;54.148;12.174;2023-02-15T09:34:54;102656.28;;;5.98;100.00
53514;BME280;39768;54.148;12.174;2023-02-15T09:39:20;102647.69;;;6.04;100.00
53514;BME280;39768;54.148;12.174;2023-02-15T09:43:42;102639.78;;;6.04;100.00
53514;BME280;39768;54.148;12.174;2023-02-15T09:52:10;102637.50;;;6.65;100.00
53514;BME280;39768;54.148;12.174;2023-02-15T09:56:31;102624.63;;;6.49;100.00
53514;BME280;39768;54.148;12.174;2023-02-15T10:05:16;102618.13;;;6.38;100.00
53514;BME280;39768;54.148;12.174;2023-02-15T10:09:45;102615.41;;;6.11;100.00
53514;BME280;39768;54.148;12.174;2023-02-15T10:27:15;102593.66;;;5.91;100.00
53514;BME280;39768;54.148;12.174;2023-02-15T10:40:07;102584.16;;;5.96;100.00
53514;BME280;39768;54.148;12.174;2023-02-15T10:49:32;102562.66;;;5.86;100.00
53514;BME280;39768;54.148;12.174;2023-02-15T10:57:57;102545.00;;;5.83;100.00
53514;BME280;39768;54.148;12.174;2023-02-15T11:06:25;102549.66;;;6.43;100.00
53514;BME280;39768;54.148;12.174;2023-02-15T11:15:30;102557.78;;;6.77;100.00
53514;BME280;39768;54.148;12.174;2023-02-15T11:23:47;102553.78;;;6.90;100.00
53514;BME280;39768;54.148;12.174;2023-02-15T11:27:49;102542.56;;;7.28;100.00
53514;BME280;39768;54.148;12.174;2023-02-15T11:32:01;102550.84;;;7.72;100.00
53514;BME280;39768;54.148;12.174;2023-02-15T11:36:19;102551.59;;;7.99;100.00
53514;BME280;39768;54.148;12.174;2023-02-15T11:40:57;102551.19;;;8.19;100.00
53514;BME280;39768;54.148;12.174;2023-02-15T11:45:25;102542.28;;;7.49;100.00
53514;BME280;39768;54.148;12.174;2023-02-15T11:49:31;102526.06;;;7.67;100.00
53514;BME280;39768;54.148;12.174;2023-02-15T11:53:35;102518.53;;;7.82;100.00
53514;BME280;39768;54.148;12.174;2023-02-15T11:57:43;102518.25;;;8.40;100.00
53514;BME280;39768;54.148;12.174;2023-02-15T12:01:46;102516.63;;;8.86;100.00
53514;BME280;39768;54.148;12.174;2023-02-15T12:05:53;102518.81;;;9.07;100.00
53514;BME280;39768;54.148;12.174;2023-02-15T12:10:04;102513.81;;;8.78;100.00
53514;BME280;39768;54.148;12.174;2023-02-15T12:14:10;102516.28;;;8.71;100.00
53514;BME280;39768;54.148;12.174;2023-02-15T12:18:38;102503.34;;;8.44;100.00
53514;BME280;39768;54.148;12.174;2023-02-15T12:22:53;102491.09;;;8.49;100.00
53514;BME280;39768;54.148;12.174;2023-02-15T12:26:57;102493.56;;;8.07;100.00
53514;BME280;39768;54.148;12.174;2023-02-15T12:31:03;102487.81;;;8.59;100.00
53514;BME280;39768;54.148;12.174;2023-02-15T12:35:13;102487.69;;;8.55;100.00
53514;BME280;39768;54.148;12.174;2023-02-15T12:39:21;102495.94;;;8.31;100.00
53514;BME280;39768;54.148;12.174;2023-02-15T12:43:32;102485.44;;;7.98;100.00
53514;BME280;39768;54.148;12.174;2023-02-15T12:47:34;102480.28;;;8.04;100.00
53514;BME280;39768;54.148;12.174;2023-02-15T12:51:49;102478.28;;;7.94;100.00
53514;BME280;39768;54.148;12.174;2023-02-15T12:55:56;102470.22;;;8.25;100.00
53514;BME280;39768;54.148;12.174;2023-02-15T13:00:04;102468.69;;;8.35;100.00
53514;BME280;39768;54.148;12.174;2023-02-15T13:04:19;102461.72;;;8.38;100.00
53514;BME280;39768;54.148;12.174;2023-02-15T13:08:28;102445.50;;;8.25;100.00
53514;BME280;39768;54.148;12.174;2023-02-15T13:12:31;102447.53;;;8.35;100.00
53514;BME280;39768;54.148;12.174;2023-02-15T13:16:36;102439.75;;;7.69;100.00
53514;BME280;39768;54.148;12.174;2023-02-15T13:20:40;102440.94;;;7.47;100.00
53514;BME280;39768;54.148;12.174;2023-02-15T13:24:48;102432.63;;;7.32;100.00
53514;BME280;39768;54.148;12.174;2023-02-15T13:28:55;102429.06;;;7.64;100.00
53514;BME280;39768;54.148;12.174;2023-02-15T13:33:00;102431.75;;;8.03;100.00
53514;BME280;39768;54.148;12.174;2023-02-15T13:37:10;102416.91;;;7.72;100.00
53514;BME280;39768;54.148;12.174;2023-02-15T13:41:46;102418.91;;;8.19;100.00
53514;BME280;39768;54.148;12.174;2023-02-15T13:55:27;102422.03;;;8.01;100.00
53514;BME280;39768;54.148;12.174;2023-02-15T14:04:17;102421.88;;;7.95;100.00
53514;BME280;39768;54.148;12.174;2023-02-15T14:08:59;102419.72;;;8.14;100.00
53514;BME280;39768;54.148;12.174;2023-02-15T14:13:44;102406.09;;;7.98;100.00
53514;BME280;39768;54.148;12.174;2023-02-15T14:22:30;102406.13;;;7.63;100.00
53514;BME280;39768;54.148;12.174;2023-02-15T14:31:02;102399.06;;;8.37;100.00
53514;BME280;39768;54.148;12.174;2023-02-15T14:35:18;102397.81;;;7.48;100.00
53514;BME280;39768;54.148;12.174;2023-02-15T14:39:44;102394.47;;;7.91;100.00
53514;BME280;39768;54.148;12.174;2023-02-15T14:44:15;102404.75;;;8.17;100.00
53514;BME280;39768;54.148;12.174;2023-02-15T14:48:33;102402.69;;;8.03;100.00
53514;BME280;39768;54.148;12.174;2023-02-15T14:57:23;102389.81;;;7.81;100.00
53514;BME280;39768;54.148;12.174;2023-02-15T15:01:29;102394.34;;;7.85;100.00
53514;BME280;39768;54.148;12.174;2023-02-15T15:05:35;102393.28;;;7.78;100.00
53514;BME280;39768;54.148;12.174;2023-02-15T15:10:04;102386.59;;;7.94;100.00
53514;BME280;39768;54.148;12.174;2023-02-15T15:18:48;102375.25;;;7.62;100.00
53514;BME280;39768;54.148;12.174;2023-02-15T15:22:49;102378.84;;;7.30;100.00
53514;BME280;39768;54.148;12.174;2023-02-15T15:35:34;102371.97;;;7.36;100.00
53514;BME280;39768;54.148;12.174;2023-02-15T15:40:11;102378.75;;;7.25;100.00
53514;BME280;39768;54.148;12.174;2023-02-15T15:48:36;102371.66;;;7.24;100.00
53514;BME280;39768;54.148;12.174;2023-02-15T15:52:41;102371.38;;;7.48;100.00
53514;BME280;39768;54.148;12.174;2023-02-15T15:56:52;102370.41;;;7.44;100.00
53514;BME280;39768;54.148;12.174;2023-02-15T16:00:59;102380.03;;;7.41;100.00
53514;BME280;39768;54.148;12.174;2023-02-15T16:05:08;102368.97;;;7.23;100.00
53514;BME280;39768;54.148;12.174;2023-02-15T16:09:21;102366.25;;;7.20;100.00
53514;BME280;39768;54.148;12.174;2023-02-15T16:13:24;102364.44;;;6.86;100.00
53514;BME280;39768;54.148;12.174;2023-02-15T16:17:28;102359.88;;;6.79;100.00
53514;BME280;39768;54.148;12.174;2023-02-15T16:21:34;102371.94;;;6.70;100.00
53514;BME280;39768;54.148;12.174;2023-02-15T16:29:47;102375.44;;;6.69;100.00
53514;BME280;39768;54.148;12.174;2023-02-15T16:33:52;102376.34;;;6.70;100.00
53514;BME280;39768;54.148;12.174;2023-02-15T16:37:54;102367.06;;;6.84;100.00
53514;BME280;39768;54.148;12.174;2023-02-15T16:41:56;102362.97;;;6.95;100.00
53514;BME280;39768;54.148;12.174;2023-02-15T16:46:05;102362.28;;;6.71;100.00
53514;BME280;39768;54.148;12.174;2023-02-15T16:50:17;102373.28;;;7.19;100.00
53514;BME280;39768;54.148;12.174;2023-02-15T16:54:21;102362.69;;;7.18;100.00
53514;BME280;39768;54.148;12.174;2023-02-15T16:58:29;102367.19;;;7.22;100.00
53514;BME280;39768;54.148;12.174;2023-02-15T17:02:33;102363.19;;;7.37;100.00
53514;BME280;39768;54.148;12.174;2023-02-15T17:06:59;102358.28;;;7.18;100.00
53514;BME280;39768;54.148;12.174;2023-02-15T17:11:17;102363.16;;;7.36;100.00
53514;BME280;39768;54.148;12.174;2023-02-15T17:15:36;102363.78;;;7.26;100.00
53514;BME280;39768;54.148;12.174;2023-02-15T17:20:11;102361.44;;;7.38;100.00
53514;BME280;39768;54.148;12.174;2023-02-15T17:28:37;102356.25;;;7.42;100.00
53514;BME280;39768;54.148;12.174;2023-02-15T17:32:55;102354.13;;;7.28;100.00
53514;BME280;39768;54.148;12.174;2023-02-15T17:36:57;102350.44;;;6.88;100.00
53514;BME280;39768;54.148;12.174;2023-02-15T17:41:00;102356.94;;;7.01;100.00
53514;BME280;39768;54.148;12.174;2023-02-15T17:45:02;102352.16;;;6.86;100.00
53514;BME280;39768;54.148;12.174;2023-02-15T17:49:04;102353.97;;;6.89;100.00
53514;BME280;39768;54.148;12.174;2023-02-15T17:53:08;102347.59;;;7.12;100.00
53514;BME280;39768;54.148;12.174;2023-02-15T17:57:13;102333.66;;;6.23;100.00
53514;BME280;39768;54.148;12.174;2023-02-15T18:01:17;102335.50;;;6.89;100.00
53514;BME280;39768;54.148;12.174;2023-02-15T18:05:39;102324.53;;;6.73;100.00
53514;BME280;39768;54.148;12.174;2023-02-15T18:09:59;102315.25;;;6.88;100.00
53514;BME280;39768;54.148;12.174;2023-02-15T18:14:19;102327.34;;;6.80;100.00
53514;BME280;39768;54.148;12.174;2023-02-15T18:18:20;102328.03;;;6.72;100.00
53514;BME280;39768;54.148;12.174;2023-02-15T18:22:22;102331.09;;;6.56;100.00
53514;BME280;39768;54.148;12.174;2023-02-15T18:26:25;102322.50;;;6.63;100.00
53514;BME280;39768;54.148;12.174;2023-02-15T18:30:27;102317.13;;;6.60;100.00
53514;BME280;39768;54.148;12.174;2023-02-15T18:34:37;102316.72;;;6.45;100.00
53514;BME280;39768;54.148;12.174;2023-02-15T18:38:40;102309.97;;;6.56;100.00
53514;BME280;39768;54.148;12.174;2023-02-15T18:42:42;102313.22;;;6.46;100.00
53514;BME280;39768;54.148;12.174;2023-02-15T18:46:48;102310.31;;;6.68;100.00
53514;BME280;39768;54.148;12.174;2023-02-15T18:50:49;102304.13;;;6.66;100.00
53514;BME280;39768;54.148;12.174;2023-02-15T18:54:55;102309.59;;;6.13;100.00
53514;BME280;39768;54.148;12.174;2023-02-15T18:58:58;102293.41;;;5.72;100.00
53514;BME280;39768;54.148;12.174;2023-02-15T19:03:00;102287.22;;;5.98;100.00
53514;BME280;39768;54.148;12.174;2023-02-15T19:07:02;102286.59;;;5.79;100.00
53514;BME280;39768;54.148;12.174;2023-02-15T19:11:04;102282.53;;;5.33;100.00
53514;BME280;39768;54.148;12.174;2023-02-15T19:15:05;102283.44;;;5.34;100.00
53514;BME280;39768;54.148;12.174;2023-02-15T19:19:07;102300.34;;;5.97;100.00
53514;BME280;39768;54.148;12.174;2023-02-15T19:23:19;102293.03;;;5.60;100.00
53514;BME280;39768;54.148;12.174;2023-02-15T19:27:25;102284.44;;;6.24;100.00
53514;BME280;39768;54.148;12.174;2023-02-15T19:31:27;102280.53;;;6.41;100.00
53514;BME280;39768;54.148;12.174;2023-02-15T19:35:33;102273.66;;;5.86;100.00
53514;BME280;39768;54.148;12.174;2023-02-15T19:39:37;102273.22;;;5.73;100.00
53514;BME280;39768;54.148;12.174;2023-02-15T19:43:39;102274.97;;;6.00;100.00
53514;BME280;39768;54.148;12.174;2023-02-15T19:47:41;102262.25;;;5.87;100.00
53514;BME280;39768;54.148;12.174;2023-02-15T19:51:43;102267.53;;;5.87;100.00
53514;BME280;39768;54.148;12.174;2023-02-15T19:55:45;102267.78;;;5.95;100.00
53514;BME280;39768;54.148;12.174;2023-02-15T19:59:46;102258.13;;;5.95;100.00
53514;BME280;39768;54.148;12.174;2023-02-15T20:03:48;102270.78;;;6.07;100.00
53514;BME280;39768;54.148;12.174;2023-02-15T20:07:52;102259.63;;;5.87;100.00
53514;BME280;39768;54.148;12.174;2023-02-15T20:11:54;102255.59;;;5.70;100.00
53514;BME280;39768;54.148;12.174;2023-02-15T20:15:56;102258.47;;;5.22;100.00
53514;BME280;39768;54.148;12.174;2023-02-15T20:19:57;102260.53;;;5.59;100.00
53514;BME280;39768;54.148;12.174;2023-02-15T20:23:59;102254.06;;;5.48;100.00
53514;BME280;39768;54.148;12.174;2023-02-15T20:28:01;102239.25;;;5.53;100.00
53514;BME280;39768;54.148;12.174;2023-02-15T20:32:03;102229.75;;;4.76;100.00
53514;BME280;39768;54.148;12.174;2023-02-15T20:36:04;102244.63;;;5.01;100.00
53514;BME280;39768;54.148;12.174;2023-02-15T20:40:18;102237.09;;;5.40;100.00
53514;BME280;39768;54.148;12.174;2023-02-15T20:44:30;102222.63;;;4.72;100.00
53514;BME280;39768;54.148;12.174;2023-02-15T20:48:32;102222.91;;;5.08;100.00
53514;BME280;39768;54.148;12.174;2023-02-15T20:52:33;102221.59;;;5.22;100.00
53514;BME280;39768;54.148;12.174;2023-02-15T20:56:35;102214.28;;;5.41;100.00
53514;BME280;39768;54.148;12.174;2023-02-15T21:00:37;102218.50;;;5.36;100.00
53514;BME280;39768;54.148;12.174;2023-02-15T21:04:39;102214.59;;;5.23;100.00
53514;BME280;39768;54.148;12.174;2023-02-15T21:08:40;102212.91;;;5.53;100.00
53514;BME280;39768;54.148;12.174;2023-02-15T21:12:43;102206.44;;;5.42;100.00
53514;BME280;39768;54.148;12.174;2023-02-15T21:16:47;102215.09;;;5.38;100.00
53514;BME280;39768;54.148;12.174;2023-02-15T21:20:51;102213.03;;;5.56;100.00
53514;BME280;39768;54.148;12.174;2023-02-15T21:24:53;102208.69;;;5.02;100.00
53514;BME280;39768;54.148;12.174;2023-02-15T21:28:55;102214.91;;;5.32;100.00
53514;BME280;39768;54.148;12.174;2023-02-15T21:32:57;102205.75;;;5.49;100.00
53514;BME280;39768;54.148;12.174;2023-02-15T21:36:58;102212.91;;;5.53;100.00
53514;BME280;39768;54.148;12.174;2023-02-15T21:40:59;102224.81;;;5.69;100.00
53514;BME280;39768;54.148;12.174;2023-02-15T21:45:21;102208.00;;;5.65;100.00
53514;BME280;39768;54.148;12.174;2023-02-15T21:49:41;102209.06;;;5.71;100.00
53514;BME280;39768;54.148;12.174;2023-02-15T21:53:44;102205.25;;;5.89;100.00
53514;BME280;39768;54.148;12.174;2023-02-15T21:57:46;102202.69;;;5.62;100.00
53514;BME280;39768;54.148;12.174;2023-02-15T22:01:50;102200.00;;;5.61;100.00
53514;BME280;39768;54.148;12.174;2023-02-15T22:05:51;102194.03;;;5.68;100.00
53514;BME280;39768;54.148;12.174;2023-02-15T22:09:53;102184.75;;;5.22;100.00
53514;BME280;39768;54.148;12.174;2023-02-15T22:13:54;102187.53;;;4.99;100.00
53514;BME280;39768;54.148;12.174;2023-02-15T22:17:56;102184.03;;;5.00;100.00
53514;BME280;39768;54.148;12.174;2023-02-15T22:21:57;102185.78;;;4.99;100.00
53514;BME280;39768;54.148;12.174;2023-02-15T22:26:10;102190.91;;;5.23;100.00
53514;BME280;39768;54.148;12.174;2023-02-15T22:30:27;102198.72;;;5.20;100.00
53514;BME280;39768;54.148;12.174;2023-02-15T22:34:31;102190.16;;;5.27;100.00
53514;BME280;39768;54.148;12.174;2023-02-15T22:38:32;102185.94;;;5.05;100.00
53514;BME280;39768;54.148;12.174;2023-02-15T22:42:34;102179.63;;;4.99;100.00
53514;BME280;39768;54.148;12.174;2023-02-15T22:46:35;102166.97;;;4.87;100.00
53514;BME280;39768;54.148;12.174;2023-02-15T22:50:38;102172.63;;;5.27;100.00
53514;BME280;39768;54.148;12.174;2023-02-15T22:54:40;102167.41;;;5.29;100.00
53514;BME280;39768;54.148;12.174;2023-02-15T22:58:41;102166.16;;;5.45;100.00
53514;BME280;39768;54.148;12.174;2023-02-15T23:02:44;102160.84;;;5.15;100.00
53514;BME280;39768;54.148;12.174;2023-02-15T23:06:45;102144.50;;;4.98;100.00
53514;BME280;39768;54.148;12.174;2023-02-15T23:10:51;102154.38;;;5.05;100.00
53514;BME280;39768;54.148;12.174;2023-02-15T23:14:54;102147.25;;;5.01;100.00
53514;BME280;39768;54.148;12.174;2023-02-15T23:18:57;102148.19;;;4.76;100.00
53514;BME280;39768;54.148;12.174;2023-02-15T23:22:58;102150.88;;;4.78;100.00
53514;BME280;39768;54.148;12.174;2023-02-15T23:27:00;102153.94;;;5.20;100.00
53514;BME280;39768;54.148;12.174;2023-02-15T23:31:21;102146.19;;;5.24;100.00
53514;BME280;39768;54.148;12.174;2023-02-15T23:35:23;102145.09;;;5.16;100.00
53514;BME280;39768;54.148;12.174;2023-02-15T23:39:26;102128.25;;;5.11;100.00
53514;BME280;39768;54.148;12.174;2023-02-15T23:43:59;102127.97;;;5.02;100.00
53514;BME280;39768;54.148;12.174;2023-02-15T23:48:02;102133.63;;;5.14;100.00
53514;BME280;39768;54.148;12.174;2023-02-15T23:52:22;102134.63;;;5.18;100.00
53514;BME280;39768;54.148;12.174;2023-02-15T23:56:24;102124.88;;;5.15;100.00
